Skip Navigation Links Skip Navigation Links

Current Weather

Thule Air Base, Thule, Greenland

For information only: do not use for flight planning or navigation.
Latest weather
Observation time Friday, May 29, 2020 8:56 PM -02
Local time Friday, May 29, 2020 9:12 PM -02
Flight conditions Low Instrument Meteorological Conditions
Winds
Wind direction West (280°)
Wind speed 6 mph
Visibility 6.2 mi.
Sky condition
Ceiling 200 ft. overcast
Cloud layer overcast 200 ft.
Temperature 26°F
Dewpoint 26°F
Altimeter 29.82 in.Hg
Derived measurements
Relative humidity 100%
Wind chill 19°F
Density altitude -1809 ft.
Sea-level pressure 29.78 in.Hg
Remarks
Fully automated report.
System requires maintenance.
Automated weather observing station with precipitation discriminator.
Lightning detection system not operating.
METAR BGTL 292256Z AUTO 28005KT 9999 OVC002 M03/M03 A2982 RMK AO2 SLP085 T10331033 TSNO $

Settings

Location code

InnerDrive.Weather 4.0.6770.0 Release CLR 4.0.30319.42000
Copyright ©2018 Inner Drive Technology. All rights reserved. Portions Copyright ©1986-2018 David Braverman.

Find weather

Site navigation


Skip Navigation Links

Place info

Page info

PayPal - The safer, easier way to pay online!

Return home.

Copyright ©2020 Inner Drive Technology. Purveyors of fine, hand-crafted computer software. Page printed 2020-05-29T23:12:02 UTC.